Data for 06/10/2010

Time Sea-Level Adjusted Pressure Absolute Pressure Temperature Relative Humidity Dew Point   
(mb) (inHg) (mb) (inHg) (C) (F) (%) (C) (F)
00:05 1012 29.88 841 24.83 10.9 51.6 78 7.2 45
00:10 1012 29.88 841 24.83 11.1 51.9 76 6.9 44.5
00:15 1012 29.88 841 24.83 11.2 52.1 75 7 44.6
00:20 1012 29.88 841 24.83 11.2 52.2 75 7.1 44.7
00:25 1012 29.88 841 24.83 11.2 52.2 71 6.3 43.3
00:30 1012 29.88 841 24.83 11.3 52.4 71 6.3 43.3
00:35 1012 29.88 841 24.83 11.3 52.4 72 6.4 43.5
00:40 1012 29.88 841 24.83 11.2 52.2 73 6.6 44
00:45 1012 29.88 841 24.83 11 51.7 74 6.5 43.7
00:50 1012 29.88 841 24.83 10.7 51.2 77 6.9 44.4
00:55 1012 29.88 841 24.83 10.3 50.6 78 6.7 44.1
01:00 1012 29.88 841 24.83 10 50 80 6.7 44
01:05 1012 29.88 841 24.83 9.8 49.7 81 6.8 44.2
01:10 1012 29.88 841 24.83 9.7 49.5 83 6.9 44.5
01:15 1012 29.88 841 24.83 9.6 49.2 86 7.4 45.2
01:20 1012 29.88 841 24.83 9.7 49.4 86 7.4 45.3
01:25 1012 29.88 841 24.83 9.8 49.7 87 7.7 45.9
01:30 1012 29.88 841 24.83 9.8 49.6 87 7.8 46
01:35 1012 29.88 841 24.83 9.8 49.7 88 7.9 46.2
01:40 1012 29.88 842 24.86 9.6 49.4 89 7.9 46.2
01:45 1013 29.91 842 24.86 9.5 49.1 88 7.7 45.8
01:50 1013 29.91 842 24.86 9.5 49 82 6.5 43.8
01:55 1013 29.91 842 24.86 9.5 49.2 80 6.2 43.2
02:00 1013 29.91 842 24.86 9.6 49.2 80 6.2 43.2
02:05 1013 29.91 842 24.86 9.5 49.1 78 5.8 42.5
02:10 1013 29.91 842 24.86 9.3 48.8 76 5.4 41.7
02:15 1013 29.91 843 24.89 9.2 48.6 76 5.2 41.4
02:20 1013 29.91 843 24.89 9.1 48.4 78 5.5 41.9
02:25 1013 29.91 843 24.89 9 48.1 78 5.4 41.7
02:30 1013 29.91 843 24.89 8.9 48 78 5.3 41.5
02:35 1014 29.94 843 24.89 8.8 47.9 77 5 41.1
02:40 1014 29.94 843 24.89 8.8 47.8 76 4.8 40.7
02:45 1014 29.94 843 24.89 8.8 47.8 77 5 41
02:50 1014 29.94 843 24.89 8.7 47.7 77 5 40.9
02:55 1014 29.94 843 24.89 8.6 47.5 79 5.2 41.4
03:00 1014 29.94 843 24.89 8.5 47.3 79 5.2 41.3
03:05 1014 29.94 843 24.89 8.6 47.4 77 4.8 40.7
03:10 1014 29.94 843 24.89 8.6 47.5 78 4.9 40.9
03:15 1014 29.94 843 24.89 8.6 47.4 77 4.8 40.6
03:20 1014 29.94 843 24.89 8.6 47.6 77 4.8 40.7
03:25 1014 29.94 844 24.92 8.6 47.5 78 5 41
03:30 1014 29.94 844 24.92 8.5 47.3 78 4.9 40.8
03:35 1014 29.94 844 24.92 8.5 47.3 77 4.8 40.6
03:40 1014 29.94 844 24.92 8.5 47.3 80 5.2 41.3
03:45 1014 29.94 843 24.89 8.4 47.1 79 5 41.1
03:50 1014 29.94 843 24.89 8.5 47.2 79 5 41
03:55 1014 29.94 843 24.89 8.4 47.1 79 5 41
04:00 1014 29.94 843 24.89 8.3 47 79 4.9 40.9
04:05 1014 29.94 843 24.89 8.3 46.9 77 4.5 40.1
04:10 1014 29.94 843 24.89 8.3 46.9 77 4.5 40.1
04:15 1014 29.94 843 24.89 8.2 46.8 77 4.4 39.9
04:20 1014 29.94 843 24.89 8.2 46.7 78 4.6 40.4
04:25 1014 29.94 843 24.89 8 46.4 78 4.3 39.8
04:30 1014 29.94 843 24.89 8.1 46.5 78 4.4 39.9
04:35 1014 29.94 843 24.89 8 46.4 77 4.3 39.8
04:40 1014 29.94 843 24.89 8 46.5 78 4.5 40.1
04:45 1014 29.94 843 24.89 7.8 46 79 4.4 39.9
04:50 1014 29.94 843 24.89 7.5 45.4 81 4.4 40
04:55 1014 29.94 843 24.89 7.2 45 83 4.5 40.2
05:00 1014 29.94 843 24.89 6.9 44.5 84 4.5 40.1
05:05 1014 29.94 843 24.89 7 44.5 84 4.5 40
05:10 1014 29.94 843 24.89 7.1 44.8 83 4.5 40
05:15 1014 29.94 843 24.89 7.2 44.9 82 4.3 39.7
05:20 1014 29.94 843 24.89 7.2 45 82 4.3 39.8
05:25 1014 29.94 843 24.89 7 44.7 81 4.1 39.4
05:30 1014 29.94 843 24.89 7 44.6 80 3.8 38.9
05:35 1014 29.94 843 24.89 7.1 44.8 79 3.7 38.7
05:40 1014 29.94 843 24.89 7.3 45.1 79 3.9 39.1
05:45 1014 29.94 843 24.89 7.1 44.8 80 4 39.2
05:50 1014 29.94 843 24.89 6.6 43.9 86 4.4 39.9
05:55 1014 29.94 843 24.89 6.2 43.1 86 4 39.3
06:00 1014 29.94 843 24.89 6.2 43.1 86 3.9 39.1
06:05 1014 29.94 843 24.89 6.2 43.2 84 3.7 38.7
06:10 1014 29.94 843 24.89 6.7 44.1 82 3.9 39
06:15 1014 29.94 843 24.89 7.1 44.7 80 3.9 39
06:20 1014 29.94 843 24.89 7.1 44.9 81 4.1 39.4
06:25 1014 29.94 843 24.89 7 44.6 81 4 39.1
06:30 1014 29.94 843 24.89 7.1 44.8 81 4.1 39.3
06:35 1014 29.94 843 24.89 7.5 45.4 79 4.1 39.3
06:40 1014 29.94 843 24.89 8 46.5 78 4.4 39.9
06:45 1014 29.94 843 24.89 8.3 47 77 4.5 40.1
06:50 1014 29.94 843 24.89 8.5 47.3 76 4.6 40.2
06:55 1014 29.94 843 24.89 8.7 47.6 75 4.5 40.1
07:00 1014 29.94 843 24.89 8.6 47.5 77 4.9 40.8
07:05 1014 29.94 843 24.89 8.7 47.7 77 4.9 40.8
07:10 1014 29.94 843 24.89 8.7 47.6 75 4.6 40.2
07:15 1014 29.94 843 24.89 9 48.2 75 4.8 40.7
07:20 1014 29.94 843 24.89 9.5 49.1 74 5.1 41.1
07:25 1014 29.94 843 24.89 9.8 49.7 72 5.1 41.2
07:30 1014 29.94 843 24.89 9.5 49.2 73 5 40.9
07:35 1014 29.94 843 24.89 9.4 49 73 4.8 40.7
07:40 1014 29.94 843 24.89 9.7 49.4 72 4.8 40.7
07:45 1014 29.94 843 24.89 10.1 50.3 70 4.9 40.8
07:50 1014 29.94 843 24.89 10.2 50.3 69 4.9 40.8
07:55 1014 29.94 843 24.89 10.5 51 68 4.9 40.8
08:00 1013 29.91 843 24.89 11.4 52.4 65 5.2 41.3
08:05 1013 29.91 843 24.89 12 53.7 60 4.6 40.2
08:10 1014 29.94 843 24.89 12.6 54.6 60 5.1 41.2
08:15 1014 29.94 843 24.89 12.8 55 57 4.5 40.2
08:20 1013 29.91 843 24.89 12.4 54.4 57 4.2 39.5
08:25 1013 29.91 843 24.89 12 53.6 59 4.2 39.6
08:30 1013 29.91 843 24.89 12.6 54.6 56 4.2 39.5
08:35 1013 29.91 843 24.89 12.3 54.1 59 4.5 40.1
08:40 1013 29.91 843 24.89 12.5 54.4 59 4.6 40.3
08:45 1013 29.91 842 24.86 12.6 54.7 58 4.6 40.3
08:50 1013 29.91 842 24.86 12.4 54.3 60 4.8 40.7
08:55 1013 29.91 842 24.86 12.8 55 58 4.9 40.8
09:00 1013 29.91 842 24.86 12.3 54.1 66 6.1 43
09:05 1013 29.91 842 24.86 12 53.7 68 6.3 43.3
09:10 1013 29.91 842 24.86 12.6 54.6 66 6.4 43.5
09:15 1013 29.91 842 24.86 11.9 53.3 66 5.8 42.4
09:20 1013 29.91 842 24.86 11.4 52.5 68 5.8 42.5
09:25 1013 29.91 842 24.86 12.7 54.8 62 5.7 42.3
09:30 1013 29.91 842 24.86 13.1 55.5 63 6.2 43.2
09:35 1013 29.91 842 24.86 12.7 54.9 63 5.8 42.5
09:40 1013 29.91 842 24.86 13.1 55.6 60 5.6 42.1
09:45 1013 29.91 842 24.86 14.1 57.3 56 5.5 41.8
09:50 1013 29.91 842 24.86 14.7 58.4 56 6 42.8
09:55 1013 29.91 842 24.86 15.4 59.6 54 6.3 43.3
10:00 1013 29.91 842 24.86 14.8 58.7 54 5.6 42
10:05 1013 29.91 842 24.86 14.6 58.4 54 5.6 42.1
10:10 1013 29.91 842 24.86 14.6 58.3 55 5.7 42.2
10:15 1013 29.91 842 24.86 14.5 58.1 55 5.5 42
10:20 1013 29.91 842 24.86 14.3 57.7 54 5.2 41.4
10:25 1013 29.91 842 24.86 14.1 57.4 55 5.3 41.6
10:30 1013 29.91 842 24.86 14.1 57.3 56 5.5 41.9
10:35 1013 29.91 842 24.86 14.3 57.8 55 5.5 41.8
10:40 1013 29.91 842 24.86 13.9 57.1 56 5.4 41.7
10:45 1013 29.91 842 24.86 14 57.3 57 5.6 42.2
10:50 1013 29.91 842 24.86 13.4 56.2 57 5.1 41.1
10:55 1013 29.91 842 24.86 14.4 57.9 54 5.2 41.4
11:00 1012 29.88 842 24.86 15 59.1 53 5.6 42.1
11:05 1012 29.88 842 24.86 15 59 52 5.4 41.7
11:10 1012 29.88 842 24.86 15.4 59.6 49 4.9 40.9
11:15 1012 29.88 842 24.86 15.8 60.4 48 4.9 40.9
11:20 1012 29.88 842 24.86 16.5 61.7 44 4.4 39.9
11:25 1012 29.88 842 24.86 16.5 61.7 45 4.6 40.3
11:30 1012 29.88 842 24.86 16.3 61.3 44 4.2 39.6
11:35 1012 29.88 841 24.83 16.4 61.6 44 4.3 39.7
11:40 1012 29.88 841 24.83 16.6 61.9 45 4.8 40.7
11:45 1012 29.88 841 24.83 16.6 61.8 42 3.8 38.8
11:50 1012 29.88 841 24.83 16.4 61.6 44 4.3 39.8
11:55 1012 29.88 841 24.83 16.4 61.5 44 4.3 39.8
12:00 1012 29.88 841 24.83 16 60.8 45 4.3 39.7
12:05 1012 29.88 841 24.83 15.8 60.4 45 4.1 39.4
12:10 1012 29.88 841 24.83 16.2 61.1 45 4.4 39.9
12:15 1012 29.88 841 24.83 16.3 61.4 44 4.3 39.7
12:20 1012 29.88 841 24.83 16.2 61.1 42 3.4 38.1
12:25 1012 29.88 842 24.86 15.8 60.4 43 3.3 38
12:30 1012 29.88 841 24.83 15.6 60.1 44 3.7 38.6
12:35 1012 29.88 841 24.83 15.3 59.5 48 4.5 40.1
12:40 1012 29.88 841 24.83 15 59 47 3.8 38.9
12:45 1012 29.88 841 24.83 15 59.1 47 3.8 38.8
12:50 1012 29.88 841 24.83 15.4 59.7 39 1.6 34.8
12:55 1012 29.88 841 24.83 15 59 45 3.4 38.2
13:00 1012 29.88 841 24.83 14.2 57.6 54 5.1 41.2
13:05 1012 29.88 841 24.83 13.1 55.6 57 4.8 40.6
13:10 1012 29.88 841 24.83 12.4 54.3 56 3.9 39.1
13:15 1012 29.88 841 24.83 12.4 54.4 57 4.1 39.4
13:20 1012 29.88 841 24.83 12.5 54.5 57 4.3 39.8
13:25 1012 29.88 841 24.83 12.2 54 57 4 39.2
13:30 1012 29.88 841 24.83 12.4 54.4 56 4 39.1
13:35 1012 29.88 841 24.83 12.6 54.7 58 4.5 40.2
13:40 1012 29.88 841 24.83 12.5 54.4 64 5.9 42.5
13:45 1012 29.88 841 24.83 12.1 53.8 66 5.9 42.7
13:50 1012 29.88 841 24.83 11.7 53 73 7 44.6
13:55 1012 29.88 841 24.83 11.7 53.1 79 8.1 46.7
14:00 1012 29.88 841 24.83 12 53.5 70 6.7 44
14:05 1012 29.88 841 24.83 12 53.6 62 5.1 41.1
14:10 1012 29.88 841 24.83 12.1 53.7 65 5.6 42.1
14:15 1012 29.88 841 24.83 12.7 54.8 63 5.9 42.5
14:20 1012 29.88 841 24.83 13 55.4 57 4.8 40.7
14:25 1011 29.85 841 24.83 12.9 55.1 62 5.9 42.6
14:30 1011 29.85 840 24.81 13 55.4 57 4.8 40.6
14:35 1011 29.85 840 24.81 13.8 56.8 57 5.4 41.6
14:40 1011 29.85 840 24.81 14.6 58.3 55 5.8 42.4
14:45 1011 29.85 841 24.83 14.7 58.5 49 4.4 39.9
14:50 1011 29.85 841 24.83 14.1 57.4 51 4.3 39.7
14:55 1011 29.85 840 24.81 14.6 58.3 46 3.3 38
15:00 1011 29.85 840 24.81 14.8 58.6 46 3.4 38
15:05 1011 29.85 840 24.81 15.4 59.7 44 3.2 37.7
15:10 1011 29.85 840 24.81 15.2 59.4 44 3 37.5
15:15 1011 29.85 840 24.81 16.3 61.3 41 3.1 37.6
15:20 1011 29.85 841 24.83 17.3 63.2 38 2.9 37.3
15:25 1012 29.88 841 24.83 16.3 61.3 42 3.3 37.9
15:30 1012 29.88 841 24.83 15.6 60 45 3.8 38.8
15:35 1012 29.88 841 24.83 15 59 44 2.9 37.1
15:40 1011 29.85 841 24.83 14.8 58.6 44 2.8 37
15:45 1011 29.85 841 24.83 15.1 59.1 50 4.7 40.5
15:50 1011 29.85 841 24.83 13.8 56.8 58 5.7 42.2
15:55 1011 29.85 840 24.81 12.8 55.1 61 5.5 42
16:00 1011 29.85 840 24.81 12.6 54.6 62 5.5 41.9
16:05 1011 29.85 840 24.81 12.4 54.4 62 5.4 41.8
16:10 1011 29.85 840 24.81 12.2 54 63 5.4 41.7
16:15 1011 29.85 840 24.81 11.8 53.2 66 5.6 42.1
16:20 1011 29.85 841 24.83 11.6 52.8 71 6.6 43.8
16:25 1012 29.88 841 24.83 11 51.8 77 7.3 45.1
16:30 1012 29.88 841 24.83 10.6 51 78 6.9 44.3
16:35 1013 29.91 842 24.86 10.1 50.1 83 7.3 45.1
16:40 1013 29.91 842 24.86 9.5 49 87 7.4 45.3
16:45 1013 29.91 842 24.86 8.7 47.7 89 7.1 44.7
16:50 1013 29.91 842 24.86 8.3 46.9 91 6.8 44.3
16:55 1013 29.91 842 24.86 8.2 46.7 91 6.7 44.1
17:00 1013 29.91 842 24.86 8.1 46.5 90 6.5 43.7
17:05 1014 29.94 843 24.89 8 46.5 90 6.5 43.7
17:10 1013 29.91 842 24.86 8.1 46.5 90 6.6 43.9
17:15 1014 29.94 843 24.89 7.9 46.3 92 6.7 44
17:20 1014 29.94 843 24.89 7.8 46.1 91 6.5 43.7
17:25 1014 29.94 843 24.89 7.7 45.8 90 6.2 43.1
17:30 1014 29.94 843 24.89 7.6 45.7 91 6.2 43.1
17:35 1014 29.94 843 24.89 7.7 45.8 90 6.2 43.1
17:40 1014 29.94 843 24.89 7.6 45.6 90 6.1 42.9
17:45 1014 29.94 843 24.89 7.4 45.4 90 5.9 42.7
17:50 1014 29.94 843 24.89 7.4 45.3 90 5.9 42.7
17:55 1014 29.94 843 24.89 7.3 45.2 91 5.9 42.7
18:00 1014 29.94 843 24.89 7.3 45.1 91 5.9 42.6
18:05 1014 29.94 843 24.89 7 44.6 91 5.6 42
18:10 1014 29.94 843 24.89 6.8 44.2 91 5.5 41.8
18:15 1014 29.94 844 24.92 6.7 44 92 5.4 41.8
18:20 1014 29.94 844 24.92 6.6 43.9 92 5.3 41.6
18:25 1014 29.94 843 24.89 6.5 43.7 93 5.4 41.8
18:30 1014 29.94 843 24.89 6.5 43.7 92 5.3 41.5
18:35 1014 29.94 843 24.89 6.5 43.7 91 5.2 41.3
18:40 1014 29.94 843 24.89 6.5 43.7 92 5.2 41.4
18:45 1014 29.94 843 24.89 6.7 44.1 91 5.4 41.7
18:50 1014 29.94 843 24.89 6.8 44.2 91 5.4 41.7
18:55 1014 29.94 843 24.89 6.8 44.2 91 5.4 41.7
19:00 1014 29.94 843 24.89 6.7 44.1 91 5.4 41.7
19:05 1014 29.94 843 24.89 6.8 44.2 90 5.2 41.4
19:10 1014 29.94 843 24.89 6.7 44 90 5.2 41.4
19:15 1014 29.94 844 24.92 6.5 43.8 90 5 41
19:20 1014 29.94 844 24.92 6.5 43.7 89 4.9 40.7
19:25 1014 29.94 844 24.92 6.3 43.3 89 4.7 40.4
19:30 1015 29.97 844 24.92 6.3 43.3 90 4.7 40.4
19:35 1015 29.97 844 24.92 6.1 42.9 90 4.5 40
19:40 1015 29.97 844 24.92 5.9 42.7 92 4.7 40.4
19:45 1015 29.97 844 24.92 5.8 42.4 92 4.5 40.2
19:50 1015 29.97 844 24.92 5.5 41.9 93 4.4 39.9
19:55 1015 29.97 844 24.92 5.4 41.6 93 4.3 39.8
20:00 1015 29.97 844 24.92 5.3 41.6 93 4.2 39.6
20:05 1015 29.97 844 24.92 5.3 41.6 93 4.3 39.7
20:10 1015 29.97 844 24.92 5.3 41.6 93 4.3 39.7
20:15 1015 29.97 845 24.95 5.3 41.6 92 4.2 39.5
20:20 1015 29.97 845 24.95 5.3 41.6 92 4.2 39.5
20:25 1015 29.97 845 24.95 5.2 41.4 93 4.1 39.4
20:30 1015 29.97 845 24.95 5.2 41.3 92 3.9 39.1
20:35 1015 29.97 845 24.95 5.1 41.1 90 3.6 38.5
20:40 1015 29.97 845 24.95 4.9 40.8 89 3.1 37.7
20:45 1016 30 845 24.95 4.6 40.3 89 3 37.3
20:50 1016 30 845 24.95 4.4 40 88 2.6 36.6
20:55 1016 30 845 24.95 4.2 39.6 89 2.6 36.6
21:00 1016 30 845 24.95 4.2 39.6 90 2.7 36.8
21:05 1016 30 845 24.95 4.2 39.6 90 2.7 36.8
21:10 1016 30 845 24.95 4.1 39.5 90 2.6 36.8
21:15 1016 30 845 24.95 4 39.2 90 2.5 36.5
21:20 1016 30 845 24.95 3.9 39 90 2.4 36.3
21:25 1016 30 845 24.95 3.8 38.8 91 2.4 36.3
21:30 1016 30 845 24.95 3.7 38.6 90 2.2 36
21:35 1016 30 845 24.95 3.7 38.6 91 2.3 36.1
21:40 1016 30 845 24.95 3.6 38.5 91 2.2 36
21:45 1016 30 845 24.95 3.6 38.4 90 2 35.6
21:50 1016 30 846 24.98 3.6 38.5 90 2.2 35.9
21:55 1016 30 846 24.98 3.8 38.8 90 2.3 36.1
22:00 1016 30 846 24.98 3.9 38.9 89 2.2 36
22:05 1016 30 846 24.98 3.9 39 88 2.1 35.7
22:10 1016 30 846 24.98 4 39.1 87 2 35.6
22:15 1016 30 846 24.98 4 39.2 87 2.1 35.7
22:20 1016 30 846 24.98 4.1 39.3 87 2.1 35.8
22:25 1017 30.03 846 24.98 4.2 39.5 87 2.3 36.1
22:30 1017 30.03 846 24.98 4.3 39.7 86 2.1 35.8
22:35 1017 30.03 846 24.98 4.3 39.7 87 2.4 36.3
22:40 1017 30.03 846 24.98 4.3 39.7 87 2.3 36.1
22:45 1017 30.03 846 24.98 4.2 39.6 88 2.4 36.2
22:50 1016 30 846 24.98 4.2 39.6 88 2.4 36.3
22:55 1016 30 846 24.98 4.2 39.6 88 2.4 36.4
23:00 1016 30 846 24.98 4.2 39.6 88 2.4 36.4
23:05 1017 30.03 846 24.98 4.2 39.6 89 2.5 36.5
23:10 1017 30.03 846 24.98 4.2 39.6 89 2.6 36.6
23:15 1017 30.03 846 24.98 4.2 39.5 90 2.6 36.7
23:20 1017 30.03 846 24.98 4.1 39.4 90 2.6 36.7
23:25 1017 30.03 846 24.98 4.1 39.3 90 2.6 36.6
23:30 1017 30.03 846 24.98 4 39.2 91 2.8 37
23:35 1017 30.03 846 24.98 4 39.2 92 2.8 37.1
23:40 1017 30.03 846 24.98 3.9 39.1 93 2.9 37.2
23:45 1017 30.03 846 24.98 3.9 39 93 2.9 37.2
23:50 1017 30.03 846 24.98 3.9 39 94 2.9 37.3
23:55 1017 30.03 846 24.98 3.8 38.9 94 3 37.4
24:00 1017 30.03 846 24.98 3.8 38.9 94 3 37.4